Time;durP1;ratioP1;P1;durP2;ratioP2;P2;SDS_P1;SDS_P2;PMS_P1;PMS_P2;Temp;Humidity;BMP_temperature;BMP_pressure;BME280_temperature;BME280_humidity;BME280_pressure;Samples;Min_cycle;Max_cycle;Signal;HPM_P1;HPM_P2
2023/04/19 00:00:58;;;;;;;12.43;11.13;;;;;;;;;;5053236;28;20435;-87
2023/04/19 00:03:26;;;;;;;12.60;11.30;;;;;;;;;;5072405;28;20398;-86
2023/04/19 00:05:58;;;;;;;12.65;11.32;;;;;;;;;;5071813;28;20470;-86
2023/04/19 00:08:27;;;;;;;12.77;11.68;;;;;;;;;;5071824;28;20422;-86
2023/04/19 00:10:53;;;;;;;12.18;11.05;;;;;;;;;;5071380;28;20417;-86
2023/04/19 00:13:20;;;;;;;13.23;11.93;;;;;;;;;;5071858;28;20516;-86
2023/04/19 00:15:49;;;;;;;12.80;11.60;;;;;;;;;;5072302;28;20414;-86
2023/04/19 00:18:15;;;;;;;13.25;12.05;;;;;;;;;;5071918;28;20441;-86
2023/04/19 00:20:41;;;;;;;13.30;12.00;;;;;;;;;;5071728;28;20451;-86
2023/04/19 00:23:09;;;;;;;13.80;12.40;;;;;;;;;;5071664;28;20732;-86
2023/04/19 00:25:36;;;;;;;13.35;12.15;;;;;;;;;;5071334;28;20445;-86
2023/04/19 00:28:02;;;;;;;13.83;12.53;;;;;;;;;;5071653;28;20414;-86
2023/04/19 00:30:28;;;;;;;13.95;12.65;;;;;;;;;;5056957;28;20430;-86
2023/04/19 00:32:57;;;;;;;13.73;12.43;;;;;;;;;;5055169;28;20479;-86
2023/04/19 00:35:23;;;;;;;13.55;12.25;;;;;;;;;;5067229;28;20412;-86
2023/04/19 00:37:50;;;;;;;13.80;12.40;;;;;;;;;;5058657;28;20425;-86
2023/04/19 00:40:17;;;;;;;14.20;12.70;;;;;;;;;;5057506;28;20414;-86
2023/04/19 00:42:43;;;;;;;14.73;12.63;;;;;;;;;;5055034;28;20399;-86
2023/04/19 00:45:09;;;;;;;13.90;12.45;;;;;;;;;;5065403;28;20465;-86
2023/04/19 00:47:35;;;;;;;14.32;12.93;;;;;;;;;;5070873;28;20408;-86
2023/04/19 00:50:03;;;;;;;13.90;12.50;;;;;;;;;;5074755;28;20511;-86
2023/04/19 00:52:29;;;;;;;14.70;13.30;;;;;;;;;;5074846;28;20489;-86
2023/04/19 00:54:56;;;;;;;14.57;13.18;;;;;;;;;;5073332;28;20404;-86
2023/04/19 00:57:22;;;;;;;14.73;13.32;;;;;;;;;;5074998;28;20409;-86
2023/04/19 00:59:49;;;;;;;14.70;13.30;;;;;;;;;;5074698;28;20516;-86
2023/04/19 01:02:15;;;;;;;15.13;13.63;;;;;;;;;;5074665;28;20413;-86
2023/04/19 01:04:44;;;;;;;14.90;13.40;;;;;;;;;;5067544;28;20470;-86
2023/04/19 01:07:10;;;;;;;14.70;13.20;;;;;;;;;;5074751;28;20409;-86
2023/04/19 01:09:40;;;;;;;14.63;13.18;;;;;;;;;;5074851;28;20448;-86
2023/04/19 01:12:06;;;;;;;14.70;13.20;;;;;;;;;;5066817;28;20426;-86
2023/04/19 01:14:35;;;;;;;14.70;13.20;;;;;;;;;;5067969;28;20416;-86
2023/04/19 01:17:01;;;;;;;14.45;13.05;;;;;;;;;;5072525;28;20424;-86
2023/04/19 01:19:27;;;;;;;15.20;13.65;;;;;;;;;;5054793;28;20430;-86
2023/04/19 01:21:55;;;;;;;14.70;13.27;;;;;;;;;;5054533;28;20398;-86
2023/04/19 01:24:21;;;;;;;14.95;13.43;;;;;;;;;;5065924;28;20473;-86
2023/04/19 01:26:47;;;;;;;14.85;13.35;;;;;;;;;;5076190;28;20447;-86
2023/04/19 01:29:14;;;;;;;14.43;13.10;;;;;;;;;;5064688;28;20446;-86
2023/04/19 01:31:42;;;;;;;15.30;13.70;;;;;;;;;;5074811;28;20417;-86
2023/04/19 01:34:08;;;;;;;15.27;13.87;;;;;;;;;;5074387;28;20410;-85
2023/04/19 01:36:34;;;;;;;15.45;13.93;;;;;;;;;;5057753;28;20460;-86
2023/04/19 01:39:01;;;;;;;15.50;13.90;;;;;;;;;;5069788;28;20473;-86
2023/04/19 01:41:30;;;;;;;15.32;13.88;;;;;;;;;;5089065;28;20442;-86
2023/04/19 01:43:56;;;;;;;15.52;13.93;;;;;;;;;;5063687;28;20411;-86
2023/04/19 01:46:22;;;;;;;16.10;14.40;;;;;;;;;;5074464;28;20402;-86
2023/04/19 01:48:51;;;;;;;15.00;13.60;;;;;;;;;;5074328;28;20406;-86
2023/04/19 01:51:17;;;;;;;14.38;12.95;;;;;;;;;;5074573;28;20417;-86
2023/04/19 01:53:43;;;;;;;15.40;13.87;;;;;;;;;;5074234;28;20507;-86
2023/04/19 01:56:09;;;;;;;15.25;13.75;;;;;;;;;;5074351;28;20493;-86
2023/04/19 01:58:37;;;;;;;16.55;14.35;;;;;;;;;;5074257;28;20505;-86
2023/04/19 02:01:03;;;;;;;15.18;13.75;;;;;;;;;;5057176;28;20425;-86
2023/04/19 02:03:29;;;;;;;15.07;13.50;;;;;;;;;;5074249;28;20498;-86
2023/04/19 02:05:55;;;;;;;16.63;13.88;;;;;;;;;;5074039;28;20450;-86
2023/04/19 02:08:21;;;;;;;15.02;13.52;;;;;;;;;;5074270;28;20418;-86
2023/04/19 02:10:47;;;;;;;14.70;13.30;;;;;;;;;;5074351;28;20452;-86
2023/04/19 02:13:13;;;;;;;14.65;13.18;;;;;;;;;;5074031;28;20410;-86
2023/04/19 02:15:39;;;;;;;14.60;13.20;;;;;;;;;;5074306;28;20457;-86
2023/04/19 02:18:06;;;;;;;14.13;12.63;;;;;;;;;;5073746;28;20430;-86
2023/04/19 02:20:32;;;;;;;14.13;12.53;;;;;;;;;;5057266;28;20446;-86
2023/04/19 02:22:58;;;;;;;13.93;12.53;;;;;;;;;;5074440;28;20463;-86
2023/04/19 02:25:24;;;;;;;14.23;12.82;;;;;;;;;;5073908;28;20407;-86
2023/04/19 02:27:52;;;;;;;13.85;12.55;;;;;;;;;;5073869;28;20413;-86
2023/04/19 02:30:18;;;;;;;14.00;12.60;;;;;;;;;;5073664;28;20438;-86
2023/04/19 02:32:47;;;;;;;14.48;12.52;;;;;;;;;;5073235;28;20472;-86
2023/04/19 02:35:13;;;;;;;13.35;12.05;;;;;;;;;;5073665;28;20498;-85
2023/04/19 02:37:41;;;;;;;12.88;11.60;;;;;;;;;;5074036;28;20422;-86
2023/04/19 02:40:08;;;;;;;13.38;12.00;;;;;;;;;;5073611;28;20410;-85
2023/04/19 02:42:34;;;;;;;13.35;11.95;;;;;;;;;;5073660;28;20398;-86
2023/04/19 02:45:00;;;;;;;12.98;11.70;;;;;;;;;;5073676;28;20394;-85
2023/04/19 02:47:26;;;;;;;12.83;11.63;;;;;;;;;;5073856;28;20441;-86
2023/04/19 02:49:53;;;;;;;12.55;11.38;;;;;;;;;;5073860;28;20406;-86
2023/04/19 02:52:19;;;;;;;12.80;11.60;;;;;;;;;;5073999;28;20464;-86
2023/04/19 02:54:47;;;;;;;12.50;11.13;;;;;;;;;;5074315;28;20437;-86
2023/04/19 02:57:13;;;;;;;11.80;10.60;;;;;;;;;;5074131;28;20406;-86
2023/04/19 02:59:39;;;;;;;12.60;11.30;;;;;;;;;;5073857;28;20429;-86
2023/04/19 03:02:05;;;;;;;12.25;11.05;;;;;;;;;;5074102;28;20410;-86
2023/04/19 03:04:34;;;;;;;11.98;10.88;;;;;;;;;;5073575;28;20399;-86
2023/04/19 03:07:00;;;;;;;12.82;10.80;;;;;;;;;;5073723;28;20440;-85
2023/04/19 03:09:29;;;;;;;11.85;10.75;;;;;;;;;;5073667;28;20422;-86
2023/04/19 03:11:57;;;;;;;11.35;10.32;;;;;;;;;;5073565;28;20442;-86
2023/04/19 03:14:24;;;;;;;11.10;10.02;;;;;;;;;;5073526;28;20410;-86
2023/04/19 03:16:55;;;;;;;11.00;9.90;;;;;;;;;;5073468;28;20406;-86
2023/04/19 03:19:21;;;;;;;10.85;9.80;;;;;;;;;;5073291;28;20533;-86
2023/04/19 03:21:47;;;;;;;11.13;10.00;;;;;;;;;;5073595;28;20412;-86
2023/04/19 03:24:13;;;;;;;10.65;9.55;;;;;;;;;;5073407;28;20410;-86
2023/04/19 03:26:41;;;;;;;10.80;9.80;;;;;;;;;;5073550;28;20411;-86
2023/04/19 03:29:07;;;;;;;10.90;9.80;;;;;;;;;;5073432;28;20430;-86
2023/04/19 03:31:33;;;;;;;10.77;9.75;;;;;;;;;;5073404;28;20434;-86
2023/04/19 03:33:59;;;;;;;10.50;9.45;;;;;;;;;;5057164;28;20411;-86
2023/04/19 03:36:26;;;;;;;10.40;9.30;;;;;;;;;;5073081;28;20417;-85
2023/04/19 03:38:52;;;;;;;10.60;9.50;;;;;;;;;;5073356;28;20434;-86
2023/04/19 03:41:19;;;;;;;10.48;9.40;;;;;;;;;;5073605;28;20438;-86
2023/04/19 03:43:45;;;;;;;10.20;9.20;;;;;;;;;;5089809;28;20414;-86
2023/04/19 03:46:11;;;;;;;10.45;9.35;;;;;;;;;;5085534;28;20426;-86
2023/04/19 03:48:38;;;;;;;10.00;9.00;;;;;;;;;;5072979;28;20406;-85
2023/04/19 03:51:04;;;;;;;11.82;9.45;;;;;;;;;;5072683;28;20452;-86
2023/04/19 03:53:30;;;;;;;9.60;8.70;;;;;;;;;;5072701;28;20421;-85
2023/04/19 03:55:56;;;;;;;9.85;8.85;;;;;;;;;;5072878;28;20413;-86
2023/04/19 03:58:22;;;;;;;9.23;8.20;;;;;;;;;;5088401;28;20457;-86
2023/04/19 04:00:48;;;;;;;9.40;8.45;;;;;;;;;;5072207;28;20411;-86
2023/04/19 04:03:14;;;;;;;9.80;8.80;;;;;;;;;;5072768;28;20503;-86
2023/04/19 04:05:40;;;;;;;9.73;8.70;;;;;;;;;;5072591;28;20444;-86
2023/04/19 04:08:09;;;;;;;9.40;8.50;;;;;;;;;;5072636;28;20398;-86
2023/04/19 04:10:35;;;;;;;9.23;8.32;;;;;;;;;;5072647;28;20410;-85
2023/04/19 04:13:01;;;;;;;10.10;8.90;;;;;;;;;;5072909;28;20488;-86
2023/04/19 04:15:30;;;;;;;9.63;8.73;;;;;;;;;;5072790;28;20406;-86
2023/04/19 04:17:56;;;;;;;9.60;8.63;;;;;;;;;;5073117;28;20441;-85
2023/04/19 04:20:22;;;;;;;9.68;8.77;;;;;;;;;;5072441;28;20409;-85
2023/04/19 04:22:48;;;;;;;9.55;8.45;;;;;;;;;;5072286;28;20406;-86
2023/04/19 04:25:17;;;;;;;9.60;8.60;;;;;;;;;;5072450;28;20497;-86
2023/04/19 04:27:43;;;;;;;9.30;8.32;;;;;;;;;;5072162;28;20417;-86
2023/04/19 04:30:10;;;;;;;9.90;8.90;;;;;;;;;;5088280;28;20430;-84
2023/04/19 04:32:37;;;;;;;9.77;8.70;;;;;;;;;;5055256;28;20431;-84
2023/04/19 04:35:03;;;;;;;9.45;8.48;;;;;;;;;;5051757;28;20404;-84
2023/04/19 04:37:32;;;;;;;9.87;8.53;;;;;;;;;;5070480;28;20403;-84
2023/04/19 04:39:59;;;;;;;9.50;8.60;;;;;;;;;;5071789;28;20425;-84
2023/04/19 04:42:26;;;;;;;9.50;8.60;;;;;;;;;;5071867;28;20414;-85
2023/04/19 04:44:52;;;;;;;9.40;8.40;;;;;;;;;;5071892;28;20475;-84
2023/04/19 04:47:18;;;;;;;9.63;8.57;;;;;;;;;;5054505;28;20486;-85
2023/04/19 04:49:47;;;;;;;9.20;8.30;;;;;;;;;;5053599;28;20422;-85
2023/04/19 04:52:13;;;;;;;8.98;8.10;;;;;;;;;;5066445;28;20405;-85
2023/04/19 04:54:40;;;;;;;9.70;8.30;;;;;;;;;;5071870;28;20433;-85
2023/04/19 04:57:06;;;;;;;9.00;8.10;;;;;;;;;;5073769;28;20493;-85
2023/04/19 04:59:32;;;;;;;9.20;8.25;;;;;;;;;;5075553;28;20422;-85
2023/04/19 05:01:58;;;;;;;8.88;7.90;;;;;;;;;;5075486;28;20420;-86
2023/04/19 05:04:24;;;;;;;9.38;7.70;;;;;;;;;;5091494;28;20398;-85
2023/04/19 05:06:51;;;;;;;8.85;7.95;;;;;;;;;;5075470;28;20410;-85
2023/04/19 05:09:17;;;;;;;9.55;8.55;;;;;;;;;;5074819;28;20428;-85
2023/04/19 05:11:43;;;;;;;10.40;8.70;;;;;;;;;;5075254;28;20411;-85
2023/04/19 05:14:09;;;;;;;9.15;8.15;;;;;;;;;;5075693;28;20406;-86
2023/04/19 05:16:35;;;;;;;9.15;8.25;;;;;;;;;;5075858;28;20406;-86
2023/04/19 05:19:01;;;;;;;8.70;7.80;;;;;;;;;;5075201;28;20508;-86
2023/04/19 05:21:27;;;;;;;8.55;7.65;;;;;;;;;;5075844;28;20481;-86
2023/04/19 05:23:56;;;;;;;8.52;7.70;;;;;;;;;;5075585;28;20449;-86
2023/04/19 05:26:22;;;;;;;8.32;7.53;;;;;;;;;;5075111;28;20412;-86
2023/04/19 05:28:48;;;;;;;8.50;7.70;;;;;;;;;;5077124;28;20410;-86
2023/04/19 05:31:14;;;;;;;8.80;7.80;;;;;;;;;;5078243;28;20416;-86
2023/04/19 05:33:40;;;;;;;8.25;7.55;;;;;;;;;;5078479;28;20420;-86
2023/04/19 05:36:06;;;;;;;8.45;7.53;;;;;;;;;;5078440;28;20408;-86
2023/04/19 05:38:35;;;;;;;9.13;7.63;;;;;;;;;;5078316;28;20428;-86
2023/04/19 05:41:02;;;;;;;8.40;7.60;;;;;;;;;;5078126;28;20403;-86
2023/04/19 05:43:28;;;;;;;8.27;7.38;;;;;;;;;;5078156;28;20405;-86
2023/04/19 05:45:57;;;;;;;8.60;7.70;;;;;;;;;;5078125;28;20403;-85
2023/04/19 05:48:24;;;;;;;8.15;7.35;;;;;;;;;;5061959;28;20412;-86
2023/04/19 05:50:53;;;;;;;8.15;7.35;;;;;;;;;;5078358;28;20417;-86
2023/04/19 05:53:19;;;;;;;8.05;7.25;;;;;;;;;;5078154;28;20400;-86
2023/04/19 05:55:46;;;;;;;7.63;6.50;;;;;;;;;;5078158;28;20396;-86
2023/04/19 05:58:13;;;;;;;8.63;7.07;;;;;;;;;;5077955;28;20433;-86
2023/04/19 06:00:41;;;;;;;7.68;6.88;;;;;;;;;;5077797;28;20408;-86
2023/04/19 06:03:07;;;;;;;7.90;6.82;;;;;;;;;;5053903;28;20410;-85
2023/04/19 06:05:33;;;;;;;7.40;6.65;;;;;;;;;;5057939;28;20407;-86
2023/04/19 06:07:59;;;;;;;7.83;6.67;;;;;;;;;;5056872;28;20426;-86
2023/04/19 06:10:26;;;;;;;6.90;6.20;;;;;;;;;;5057752;28;20410;-86
2023/04/19 06:12:52;;;;;;;8.67;6.60;;;;;;;;;;5057682;28;20495;-85
2023/04/19 06:15:18;;;;;;;7.43;6.38;;;;;;;;;;5041472;28;20433;-86
2023/04/19 06:17:44;;;;;;;8.43;6.70;;;;;;;;;;5057543;28;20462;-86
2023/04/19 06:20:11;;;;;;;8.38;6.57;;;;;;;;;;5057769;28;20402;-86
2023/04/19 06:22:46;;;;;;;9.82;6.63;;;;;;;;;;5041178;28;20403;-86
2023/04/19 06:25:12;;;;;;;7.30;6.50;;;;;;;;;;5057275;28;20402;-86
2023/04/19 06:27:38;;;;;;;7.18;6.07;;;;;;;;;;5057525;28;20486;-86
2023/04/19 06:30:04;;;;;;;6.90;6.18;;;;;;;;;;5066381;28;20426;-86
2023/04/19 06:32:30;;;;;;;8.00;6.43;;;;;;;;;;5074053;28;20470;-86
2023/04/19 06:34:59;;;;;;;7.30;6.20;;;;;;;;;;5074194;28;20394;-86
2023/04/19 06:37:25;;;;;;;7.80;6.00;;;;;;;;;;5073886;28;20434;-86
2023/04/19 06:39:51;;;;;;;9.20;5.93;;;;;;;;;;5074162;28;20427;-86
2023/04/19 06:42:18;;;;;;;6.85;5.60;;;;;;;;;;5073885;28;20461;-86
2023/04/19 06:44:45;;;;;;;7.07;5.60;;;;;;;;;;5073826;28;20442;-87
2023/04/19 06:47:11;;;;;;;6.18;5.38;;;;;;;;;;5073882;28;20406;-86
2023/04/19 06:49:37;;;;;;;6.47;5.57;;;;;;;;;;5073445;28;20459;-86
2023/04/19 06:52:03;;;;;;;5.80;5.20;;;;;;;;;;5090511;28;20410;-86
2023/04/19 06:54:29;;;;;;;7.22;5.25;;;;;;;;;;5090511;28;20438;-87
2023/04/19 06:56:56;;;;;;;5.65;4.90;;;;;;;;;;5090383;28;20402;-87
2023/04/19 06:59:22;;;;;;;5.75;4.90;;;;;;;;;;5090320;28;20430;-86
2023/04/19 07:01:48;;;;;;;5.90;4.70;;;;;;;;;;5073845;28;20434;-85
2023/04/19 07:04:16;;;;;;;6.05;4.70;;;;;;;;;;5090445;28;20413;-86
2023/04/19 07:06:42;;;;;;;6.80;4.80;;;;;;;;;;5090319;28;20492;-86
2023/04/19 07:09:08;;;;;;;6.68;4.82;;;;;;;;;;5086636;28;20438;-86
2023/04/19 07:11:37;;;;;;;5.90;4.65;;;;;;;;;;5073311;28;20438;-86
2023/04/19 07:14:03;;;;;;;5.10;4.43;;;;;;;;;;5073280;28;20432;-85
2023/04/19 07:16:29;;;;;;;5.25;4.35;;;;;;;;;;5056812;28;20418;-87
2023/04/19 07:18:56;;;;;;;5.75;4.20;;;;;;;;;;5073121;28;20418;-87
2023/04/19 07:21:25;;;;;;;7.68;4.28;;;;;;;;;;5072895;28;20430;-87
2023/04/19 07:23:51;;;;;;;5.72;4.05;;;;;;;;;;5073106;28;20489;-87
2023/04/19 07:26:17;;;;;;;5.00;4.30;;;;;;;;;;5072865;28;20402;-87
2023/04/19 07:28:46;;;;;;;4.90;4.33;;;;;;;;;;5068034;28;20479;-87
2023/04/19 07:31:15;;;;;;;6.10;4.07;;;;;;;;;;5072625;28;20418;-85
2023/04/19 07:33:44;;;;;;;5.20;4.05;;;;;;;;;;5072777;28;20415;-85
2023/04/19 07:36:10;;;;;;;5.25;3.95;;;;;;;;;;5072730;28;20410;-85
2023/04/19 07:38:36;;;;;;;4.28;3.88;;;;;;;;;;5072612;28;20520;-86
2023/04/19 07:41:04;;;;;;;6.90;3.83;;;;;;;;;;5072732;28;20402;-84
2023/04/19 07:43:30;;;;;;;5.93;3.97;;;;;;;;;;5072458;28;20413;-84
2023/04/19 07:45:56;;;;;;;5.45;3.90;;;;;;;;;;5059641;28;20442;-85
2023/04/19 07:48:22;;;;;;;6.07;3.83;;;;;;;;;;5052633;28;20420;-85
2023/04/19 07:50:49;;;;;;;6.20;3.93;;;;;;;;;;5052509;28;20419;-85
2023/04/19 07:53:15;;;;;;;6.03;3.60;;;;;;;;;;5052288;28;20427;-84
2023/04/19 07:55:41;;;;;;;6.13;3.80;;;;;;;;;;5052390;28;20431;-84
2023/04/19 07:58:07;;;;;;;5.77;3.63;;;;;;;;;;5052334;28;20435;-84
2023/04/19 08:00:35;;;;;;;5.40;3.63;;;;;;;;;;5052245;28;20412;-85
2023/04/19 08:03:02;;;;;;;5.90;3.58;;;;;;;;;;5058343;28;20412;-85
2023/04/19 08:05:28;;;;;;;4.85;3.58;;;;;;;;;;5089181;28;20402;-85
2023/04/19 08:07:55;;;;;;;5.68;3.55;;;;;;;;;;5088791;28;20403;-84
2023/04/19 08:10:24;;;;;;;5.63;3.35;;;;;;;;;;5089101;28;20407;-86
2023/04/19 08:12:50;;;;;;;4.00;3.00;;;;;;;;;;5089150;28;20402;-86
2023/04/19 08:15:16;;;;;;;4.50;2.80;;;;;;;;;;5089053;28;20406;-84
2023/04/19 08:17:42;;;;;;;3.38;2.83;;;;;;;;;;5088999;28;20398;-85
2023/04/19 08:20:11;;;;;;;4.72;3.03;;;;;;;;;;5067143;28;20461;-85
2023/04/19 08:22:39;;;;;;;3.90;2.97;;;;;;;;;;5052170;28;20495;-85
2023/04/19 08:25:08;;;;;;;4.20;2.90;;;;;;;;;;5052459;28;20419;-84
2023/04/19 08:27:35;;;;;;;3.75;2.70;;;;;;;;;;5051937;28;20408;-84
2023/04/19 08:30:02;;;;;;;2.78;2.50;;;;;;;;;;5051271;28;20526;-84
2023/04/19 08:32:30;;;;;;;3.20;2.30;;;;;;;;;;5050605;28;20419;-84
2023/04/19 08:34:56;;;;;;;3.03;2.30;;;;;;;;;;5051747;28;20403;-87
2023/04/19 08:37:22;;;;;;;4.38;2.00;;;;;;;;;;5056607;28;20451;-86
2023/04/19 08:39:48;;;;;;;3.83;2.20;;;;;;;;;;5068770;28;20432;-88
2023/04/19 08:42:14;;;;;;;3.90;2.30;;;;;;;;;;5068638;28;20407;-87
2023/04/19 08:44:41;;;;;;;2.83;2.07;;;;;;;;;;5068852;28;20438;-87
2023/04/19 08:47:07;;;;;;;3.80;2.20;;;;;;;;;;5068897;28;20407;-88
2023/04/19 08:49:38;;;;;;;2.90;2.20;;;;;;;;;;5068591;28;20462;-87
2023/04/19 08:52:07;;;;;;;3.55;1.90;;;;;;;;;;5069150;28;20416;-86
2023/04/19 08:54:34;;;;;;;3.65;2.20;;;;;;;;;;5068444;28;20435;-86
2023/04/19 08:57:02;;;;;;;2.00;1.80;;;;;;;;;;5068407;28;20412;-87
2023/04/19 08:59:31;;;;;;;3.50;2.10;;;;;;;;;;5068361;28;20481;-86
2023/04/19 09:02:00;;;;;;;4.65;2.00;;;;;;;;;;5068541;28;20400;-86
2023/04/19 09:04:26;;;;;;;4.70;2.00;;;;;;;;;;5068699;28;20459;-87
2023/04/19 09:06:53;;;;;;;3.80;1.90;;;;;;;;;;5068698;28;20404;-85
2023/04/19 09:09:26;;;;;;;2.25;2.00;;;;;;;;;;5068818;28;20431;-86
2023/04/19 09:11:52;;;;;;;4.80;2.03;;;;;;;;;;5068736;28;20400;-87
2023/04/19 09:14:19;;;;;;;3.38;2.08;;;;;;;;;;5068609;28;20408;-87
2023/04/19 09:16:45;;;;;;;3.45;2.10;;;;;;;;;;5068625;28;20421;-86
2023/04/19 09:19:12;;;;;;;3.77;2.17;;;;;;;;;;5068326;28;20428;-86
2023/04/19 09:21:38;;;;;;;3.50;2.20;;;;;;;;;;5068807;28;20407;-86
2023/04/19 09:24:07;;;;;;;4.57;2.10;;;;;;;;;;5068273;28;20462;-86
2023/04/19 09:26:33;;;;;;;2.70;2.13;;;;;;;;;;5068377;28;20438;-86
2023/04/19 09:29:06;;;;;;;2.50;2.30;;;;;;;;;;5068647;28;20428;-85
2023/04/19 09:31:33;;;;;;;3.65;2.10;;;;;;;;;;5068677;28;20424;-86
2023/04/19 09:34:12;;;;;;;3.53;2.00;;;;;;;;;;5068214;28;20400;-86
2023/04/19 09:36:41;;;;;;;3.03;2.10;;;;;;;;;;5068448;28;20412;-87
2023/04/19 09:39:07;;;;;;;3.70;2.20;;;;;;;;;;5068311;28;20427;-87
2023/04/19 09:41:36;;;;;;;3.60;2.13;;;;;;;;;;5068392;28;20462;-85
2023/04/19 09:44:20;;;;;;;2.90;2.00;;;;;;;;;;5070371;28;20430;-85
2023/04/19 09:46:51;;;;;;;2.97;2.10;;;;;;;;;;5072153;28;20414;-86
2023/04/19 09:49:25;;;;;;;4.25;2.20;;;;;;;;;;5072324;28;20422;-87
2023/04/19 09:51:52;;;;;;;3.10;2.00;;;;;;;;;;5074742;28;20407;-86
2023/04/19 09:54:20;;;;;;;2.30;2.10;;;;;;;;;;5074827;28;20448;-87
2023/04/19 09:56:49;;;;;;;3.17;2.10;;;;;;;;;;5074662;28;20487;-86
2023/04/19 09:59:15;;;;;;;5.43;2.15;;;;;;;;;;5074751;28;20418;-86
2023/04/19 10:01:46;;;;;;;3.38;2.05;;;;;;;;;;5074320;28;20460;-86
2023/04/19 10:04:22;;;;;;;2.83;2.20;;;;;;;;;;5074488;28;20403;-86
2023/04/19 10:06:52;;;;;;;2.20;1.88;;;;;;;;;;5074461;28;20485;-86
2023/04/19 10:09:21;;;;;;;3.57;2.13;;;;;;;;;;5074634;28;20406;-86
2023/04/19 10:11:51;;;;;;;3.13;2.00;;;;;;;;;;5074497;28;20406;-86
2023/04/19 10:14:21;;;;;;;3.77;1.97;;;;;;;;;;5074394;28;20410;-85
2023/04/19 10:16:48;;;;;;;2.22;2.03;;;;;;;;;;5074161;28;20402;-86
2023/04/19 10:19:16;;;;;;;3.47;2.10;;;;;;;;;;5074160;28;20429;-85
2023/04/19 10:21:46;;;;;;;4.07;2.08;;;;;;;;;;5074415;28;20402;-86
2023/04/19 10:24:17;;;;;;;3.70;1.90;;;;;;;;;;5074225;28;20449;-86
2023/04/19 10:27:11;;;;;;;2.72;2.20;;;;;;;;;;5074450;28;20585;-88
2023/04/19 10:29:56;;;;;;;3.08;2.00;;;;;;;;;;5074052;28;20453;-86
2023/04/19 10:32:41;;;;;;;3.33;2.00;;;;;;;;;;5074143;28;20398;-85
2023/04/19 10:35:16;;;;;;;3.78;2.10;;;;;;;;;;5073904;28;20407;-86
2023/04/19 10:38:01;;;;;;;3.58;2.15;;;;;;;;;;5073992;28;20402;-86
2023/04/19 10:40:49;;;;;;;2.58;2.30;;;;;;;;;;5073968;28;20446;-85
2023/04/19 10:43:16;;;;;;;4.57;2.30;;;;;;;;;;5073992;28;20394;-87
2023/04/19 10:45:42;;;;;;;3.13;2.10;;;;;;;;;;5074061;28;20485;-86
2023/04/19 10:48:36;;;;;;;5.13;2.33;;;;;;;;;;5073880;28;20414;-86
2023/04/19 10:51:04;;;;;;;3.63;2.27;;;;;;;;;;5060892;28;20402;-87
2023/04/19 10:53:48;;;;;;;4.10;2.50;;;;;;;;;;5071977;28;20448;-86
2023/04/19 10:56:16;;;;;;;3.00;2.40;;;;;;;;;;5088689;28;20422;-86
2023/04/19 10:59:06;;;;;;;3.50;2.40;;;;;;;;;;5089407;28;20426;-86
2023/04/19 11:01:36;;;;;;;3.10;2.28;;;;;;;;;;5070021;28;20400;-86
2023/04/19 11:04:03;;;;;;;4.95;2.65;;;;;;;;;;5069558;28;20404;-86
2023/04/19 11:06:29;;;;;;;3.77;2.33;;;;;;;;;;5070355;28;20460;-87
2023/04/19 11:08:59;;;;;;;4.67;2.33;;;;;;;;;;5070634;28;20511;-86
2023/04/19 11:11:25;;;;;;;4.68;2.30;;;;;;;;;;5070009;28;20466;-86
2023/04/19 11:13:54;;;;;;;3.53;2.30;;;;;;;;;;5070512;28;20416;-85
2023/04/19 11:16:21;;;;;;;3.55;2.33;;;;;;;;;;5070112;28;20445;-86
2023/04/19 11:18:49;;;;;;;4.13;2.55;;;;;;;;;;5069788;28;20526;-86
2023/04/19 11:21:18;;;;;;;3.53;2.33;;;;;;;;;;5069812;28;20435;-85
2023/04/19 11:23:46;;;;;;;4.50;2.40;;;;;;;;;;5069367;28;20408;-83
2023/04/19 11:26:12;;;;;;;3.90;2.40;;;;;;;;;;5069823;28;20404;-82
2023/04/19 11:28:39;;;;;;;5.38;2.33;;;;;;;;;;5069666;28;20446;-83
2023/04/19 11:31:06;;;;;;;3.47;2.50;;;;;;;;;;5069655;28;20500;-83
2023/04/19 11:33:37;;;;;;;4.28;2.65;;;;;;;;;;5069250;28;20473;-82
2023/04/19 11:36:04;;;;;;;3.67;2.40;;;;;;;;;;5069461;28;20464;-83
2023/04/19 11:38:30;;;;;;;4.78;2.60;;;;;;;;;;5069259;28;20434;-83
2023/04/19 11:41:04;;;;;;;5.22;2.50;;;;;;;;;;5070035;28;20404;-85
2023/04/19 11:43:34;;;;;;;5.20;2.60;;;;;;;;;;5069607;28;20404;-82
2023/04/19 11:46:07;;;;;;;5.13;2.70;;;;;;;;;;5069378;28;20415;-83
2023/04/19 11:48:34;;;;;;;4.88;3.00;;;;;;;;;;5069029;28;20399;-82
2023/04/19 11:51:03;;;;;;;3.70;2.50;;;;;;;;;;5069069;28;20412;-85
2023/04/19 11:53:32;;;;;;;3.50;2.50;;;;;;;;;;5068919;28;20404;-84
2023/04/19 11:56:07;;;;;;;4.05;2.60;;;;;;;;;;5068906;28;20487;-84
2023/04/19 11:58:37;;;;;;;3.92;2.47;;;;;;;;;;5069980;28;20423;-84
2023/04/19 12:01:05;;;;;;;4.43;2.50;;;;;;;;;;5069632;28;20418;-84
2023/04/19 12:03:33;;;;;;;5.88;2.53;;;;;;;;;;5069017;28;20408;-84
2023/04/19 12:06:07;;;;;;;4.80;2.60;;;;;;;;;;5052099;28;20487;-84
2023/04/19 12:08:37;;;;;;;4.57;2.45;;;;;;;;;;5069192;28;20416;-83
2023/04/19 12:11:04;;;;;;;4.53;2.60;;;;;;;;;;5068928;28;20407;-83
2023/04/19 12:13:31;;;;;;;3.80;2.40;;;;;;;;;;5069049;28;20435;-83
2023/04/19 12:15:57;;;;;;;3.72;2.60;;;;;;;;;;5068781;28;20403;-83
2023/04/19 12:18:26;;;;;;;3.88;2.60;;;;;;;;;;5052526;28;20482;-83
2023/04/19 12:20:52;;;;;;;3.40;2.70;;;;;;;;;;5069418;28;20404;-82
2023/04/19 12:23:19;;;;;;;3.72;2.83;;;;;;;;;;5051378;28;20458;-84
2023/04/19 12:25:46;;;;;;;3.78;2.70;;;;;;;;;;5068782;28;20407;-83
2023/04/19 12:28:12;;;;;;;3.47;2.80;;;;;;;;;;5069070;28;20430;-84
2023/04/19 12:30:39;;;;;;;5.68;3.10;;;;;;;;;;5069047;28;20447;-83
2023/04/19 12:33:11;;;;;;;3.40;2.80;;;;;;;;;;5068979;28;20430;-83
2023/04/19 12:35:38;;;;;;;5.82;3.08;;;;;;;;;;5068809;28;20408;-83
2023/04/19 12:38:04;;;;;;;6.40;3.00;;;;;;;;;;5052204;28;20584;-84
2023/04/19 12:40:33;;;;;;;4.67;2.97;;;;;;;;;;5068634;28;20391;-83
2023/04/19 12:42:59;;;;;;;5.55;3.15;;;;;;;;;;5068455;28;20391;-83
2023/04/19 12:45:25;;;;;;;5.63;3.10;;;;;;;;;;5070326;28;20407;-83
2023/04/19 12:47:51;;;;;;;5.63;3.30;;;;;;;;;;5071581;28;20493;-82
2023/04/19 12:50:17;;;;;;;5.65;3.25;;;;;;;;;;5066944;28;20406;-82
2023/04/19 12:52:44;;;;;;;3.45;2.95;;;;;;;;;;5045669;28;20399;-83
2023/04/19 12:55:11;;;;;;;6.57;3.50;;;;;;;;;;5059930;28;20404;-82
2023/04/19 12:57:37;;;;;;;5.17;3.13;;;;;;;;;;5065739;28;20394;-82
2023/04/19 13:00:04;;;;;;;4.35;3.20;;;;;;;;;;5055211;28;20444;-82
2023/04/19 13:02:30;;;;;;;5.00;3.40;;;;;;;;;;5052700;28;20513;-81
2023/04/19 13:04:56;;;;;;;5.10;3.40;;;;;;;;;;5051722;28;20458;-82
2023/04/19 13:07:22;;;;;;;4.07;3.33;;;;;;;;;;5051774;28;20412;-81
2023/04/19 13:09:48;;;;;;;5.30;3.15;;;;;;;;;;5051612;28;20413;-82
2023/04/19 13:12:15;;;;;;;3.88;3.00;;;;;;;;;;5051720;28;20419;-82
2023/04/19 13:14:41;;;;;;;4.60;3.20;;;;;;;;;;5052184;28;20404;-82
2023/04/19 13:17:07;;;;;;;3.20;2.90;;;;;;;;;;5051870;28;20408;-82
2023/04/19 13:19:35;;;;;;;4.32;3.20;;;;;;;;;;5055386;28;20518;-82
2023/04/19 13:22:01;;;;;;;6.38;2.90;;;;;;;;;;5055462;28;20412;-82
2023/04/19 13:24:27;;;;;;;3.35;2.88;;;;;;;;;;5055665;28;20439;-84
2023/04/19 13:26:56;;;;;;;5.50;3.08;;;;;;;;;;5055356;28;20482;-83
2023/04/19 13:29:22;;;;;;;3.95;2.80;;;;;;;;;;5055403;28;20436;-83
2023/04/19 13:31:48;;;;;;;4.22;2.92;;;;;;;;;;5055946;28;20418;-84
2023/04/19 13:34:14;;;;;;;5.80;2.80;;;;;;;;;;5055201;28;20443;-85
2023/04/19 13:36:43;;;;;;;3.97;2.72;;;;;;;;;;5055388;28;20404;-87
2023/04/19 13:39:09;;;;;;;4.00;2.90;;;;;;;;;;5054932;28;20444;-85
2023/04/19 13:41:35;;;;;;;5.35;3.03;;;;;;;;;;5055201;28;20434;-84
2023/04/19 13:44:01;;;;;;;4.68;3.20;;;;;;;;;;5055160;28;20426;-84
2023/04/19 13:46:31;;;;;;;4.07;2.60;;;;;;;;;;5055076;28;20403;-85
2023/04/19 13:48:57;;;;;;;3.92;3.05;;;;;;;;;;5054897;28;20480;-85
2023/04/19 13:51:23;;;;;;;5.40;2.80;;;;;;;;;;5054893;28;20463;-85
2023/04/19 13:53:52;;;;;;;3.65;2.90;;;;;;;;;;5054743;28;20483;-84
2023/04/19 13:56:18;;;;;;;4.88;3.10;;;;;;;;;;5054935;28;20407;-84
2023/04/19 13:58:45;;;;;;;3.67;3.13;;;;;;;;;;5054947;28;20462;-84
2023/04/19 14:01:13;;;;;;;4.53;3.22;;;;;;;;;;5054926;28;20475;-85
2023/04/19 14:03:39;;;;;;;4.45;3.25;;;;;;;;;;5054558;28;20463;-85
2023/04/19 14:06:06;;;;;;;3.53;3.17;;;;;;;;;;5057585;28;20440;-84
2023/04/19 14:08:34;;;;;;;4.60;3.22;;;;;;;;;;5064913;28;20410;-84
2023/04/19 14:11:00;;;;;;;5.78;3.20;;;;;;;;;;5064941;28;20447;-85
2023/04/19 14:13:26;;;;;;;4.60;3.15;;;;;;;;;;5063520;28;20431;-85
2023/04/19 14:15:52;;;;;;;5.10;3.10;;;;;;;;;;5061849;28;20404;-85
2023/04/19 14:18:21;;;;;;;4.32;3.10;;;;;;;;;;5064919;28;20437;-84
2023/04/19 14:20:47;;;;;;;6.07;3.00;;;;;;;;;;5047480;28;20408;-84
2023/04/19 14:23:13;;;;;;;3.00;2.70;;;;;;;;;;5046337;28;20462;-84
2023/04/19 14:25:46;;;;;;;6.78;2.95;;;;;;;;;;5079056;28;20403;-84
2023/04/19 14:28:12;;;;;;;4.80;3.03;;;;;;;;;;5064702;28;20414;-84
2023/04/19 14:30:41;;;;;;;4.93;3.03;;;;;;;;;;5063678;28;20414;-85
2023/04/19 14:33:07;;;;;;;6.32;2.92;;;;;;;;;;5048009;28;20408;-84
2023/04/19 14:35:33;;;;;;;5.32;3.28;;;;;;;;;;5068125;28;20413;-84
2023/04/19 14:37:59;;;;;;;4.88;3.35;;;;;;;;;;5057891;28;20473;-85